Time;durP1;ratioP1;P1;durP2;ratioP2;P2;SDS_P1;SDS_P2;PMS_P1;PMS_P2;Temp;Humidity;BMP_temperature;BMP_pressure;BME280_temperature;BME280_humidity;BME280_pressure;Samples;Min_cycle;Max_cycle;Signal;HPM_P1;HPM_P2
2021/04/27 00:00:41;;;;;;;5.82;2.30;;;;;;;6.13;39.59;98442.09;5092226;28;20056;-80
2021/04/27 00:03:07;;;;;;;4.90;1.67;;;;;;;5.82;41.72;98423.91;5092950;28;20040;-80
2021/04/27 00:05:34;;;;;;;3.10;1.60;;;;;;;5.82;40.58;98423.91;5095089;28;20040;-80
2021/04/27 00:08:01;;;;;;;4.13;2.20;;;;;;;5.78;41.27;98414.50;5097918;28;20048;-80
2021/04/27 00:10:27;;;;;;;3.97;1.80;;;;;;;5.82;40.47;98428.47;5090474;28;20043;-80
2021/04/27 00:12:53;;;;;;;5.15;1.92;;;;;;;5.69;40.89;98426.34;5091322;28;20044;-80
2021/04/27 00:15:23;;;;;;;3.55;2.60;;;;;;;5.67;41.41;98423.81;5090614;28;20044;-80
2021/04/27 00:17:50;;;;;;;4.95;1.73;;;;;;;5.64;41.84;98429.53;5103368;28;20389;-79
2021/04/27 00:20:20;;;;;;;5.68;2.10;;;;;;;5.75;40.86;98416.69;5100372;28;20040;-80
2021/04/27 00:22:47;;;;;;;1.85;1.60;;;;;;;5.63;41.36;98405.44;5097641;28;20093;-80
2021/04/27 00:25:14;;;;;;;2.28;1.70;;;;;;;5.69;42.06;98415.56;5094903;28;20104;-80
2021/04/27 00:27:42;;;;;;;2.00;1.65;;;;;;;5.52;42.73;98411.19;5102017;28;20048;-80
2021/04/27 00:30:10;;;;;;;5.28;2.67;;;;;;;5.48;42.21;98408.84;5096709;28;20044;-80
2021/04/27 00:32:37;;;;;;;3.20;1.85;;;;;;;5.47;42.05;98417.09;5110517;28;20043;-80
2021/04/27 00:35:03;;;;;;;2.47;1.75;;;;;;;5.49;42.56;98409.66;5108654;27;20563;-80
2021/04/27 00:37:30;;;;;;;4.28;2.10;;;;;;;5.47;41.75;98409.00;5104868;28;20491;-80
2021/04/27 00:39:57;;;;;;;4.13;2.10;;;;;;;5.32;42.85;98390.00;5093066;28;20044;-80
2021/04/27 00:42:31;;;;;;;5.95;2.20;;;;;;;5.32;44.18;98406.16;5090361;28;20079;-80
2021/04/27 00:44:58;;;;;;;2.35;1.67;;;;;;;5.10;44.19;98392.38;5088580;28;20419;-80
2021/04/27 00:47:24;;;;;;;2.53;1.63;;;;;;;5.14;44.49;98409.03;5089529;28;20044;-80
2021/04/27 00:49:53;;;;;;;6.78;1.85;;;;;;;5.09;43.85;98406.84;5090021;28;20059;-80
2021/04/27 00:52:20;;;;;;;6.78;1.95;;;;;;;4.96;44.61;98398.41;5089441;28;20055;-80
2021/04/27 00:54:46;;;;;;;5.45;2.13;;;;;;;5.01;44.04;98406.81;5106052;28;20449;-80
2021/04/27 00:57:13;;;;;;;5.15;2.10;;;;;;;5.05;43.46;98383.09;5088465;28;20074;-80
2021/04/27 00:59:40;;;;;;;2.67;1.85;;;;;;;5.07;43.70;98390.03;5089955;28;20837;-80
2021/04/27 01:02:06;;;;;;;4.68;2.15;;;;;;;5.02;44.58;98395.06;5102558;28;20044;-80
2021/04/27 01:04:32;;;;;;;6.47;1.92;;;;;;;4.99;43.67;98387.31;5096693;28;20047;-80
2021/04/27 01:06:59;;;;;;;2.90;2.10;;;;;;;4.94;44.38;98374.34;5098886;28;20086;-81
2021/04/27 01:09:30;;;;;;;8.45;2.00;;;;;;;4.91;45.43;98388.16;5102108;28;20052;-80
2021/04/27 01:12:02;;;;;;;6.75;2.38;;;;;;;4.78;44.94;98382.41;5087959;28;20127;-80
2021/04/27 01:14:34;;;;;;;1.83;1.73;;;;;;;4.62;45.69;98364.38;5088454;28;20396;-81
2021/04/27 01:17:03;;;;;;;3.08;1.95;;;;;;;4.70;45.13;98387.81;5086643;28;20059;-80
2021/04/27 01:19:38;;;;;;;2.70;1.88;;;;;;;4.56;48.86;98384.75;5092375;28;20094;-80
2021/04/27 01:22:08;;;;;;;7.22;2.47;;;;;;;4.32;46.75;98364.03;5101741;28;20518;-81
2021/04/27 01:24:39;;;;;;;2.25;1.85;;;;;;;4.50;47.73;98382.72;5098668;28;20511;-80
2021/04/27 01:27:07;;;;;;;2.63;1.88;;;;;;;4.23;46.95;98368.53;5089630;28;20056;-80
2021/04/27 01:29:35;;;;;;;3.15;2.03;;;;;;;3.94;48.13;98363.53;5096062;28;20044;-80
2021/04/27 01:32:04;;;;;;;4.57;2.00;;;;;;;4.13;47.79;98383.97;5089545;28;20055;-79
2021/04/27 01:34:35;;;;;;;3.60;1.50;;;;;;;4.08;46.80;98372.88;5089161;28;20044;-80
2021/04/27 01:37:03;;;;;;;2.75;2.03;;;;;;;4.14;49.26;98382.09;5088889;28;20052;-78
2021/04/27 01:39:31;;;;;;;5.40;1.83;;;;;;;3.89;50.13;98372.09;5090865;28;20048;-80
2021/04/27 01:42:02;;;;;;;2.22;2.03;;;;;;;3.95;49.26;98386.75;5091436;28;20399;-80
2021/04/27 01:44:30;;;;;;;5.32;2.33;;;;;;;4.08;47.93;98379.06;5097999;28;20052;-80
2021/04/27 01:46:57;;;;;;;4.38;2.20;;;;;;;4.00;49.47;98383.56;5096373;28;20044;-80
2021/04/27 01:49:24;;;;;;;4.30;1.92;;;;;;;3.92;49.72;98379.00;5090906;28;20040;-80
2021/04/27 01:51:51;;;;;;;4.05;2.25;;;;;;;3.76;50.57;98376.25;5094822;28;20326;-80
2021/04/27 01:54:20;;;;;;;3.50;2.15;;;;;;;3.83;51.31;98383.50;5094668;28;20097;-80
2021/04/27 01:56:47;;;;;;;5.28;2.10;;;;;;;3.77;50.95;98369.88;5094208;28;20040;-80
2021/04/27 01:59:13;;;;;;;4.15;2.00;;;;;;;3.65;50.70;98364.75;5094545;28;20052;-80
2021/04/27 02:01:40;;;;;;;3.30;2.20;;;;;;;3.54;51.47;98365.88;5097305;28;20048;-80
2021/04/27 02:04:06;;;;;;;5.97;2.55;;;;;;;3.59;52.41;98368.09;5093009;28;20051;-79
2021/04/27 02:06:32;;;;;;;3.38;2.78;;;;;;;3.50;51.79;98358.31;5091887;28;20060;-80
2021/04/27 02:09:03;;;;;;;6.72;2.15;;;;;;;3.35;50.80;98353.50;5092942;28;20052;-80
2021/04/27 02:11:33;;;;;;;4.63;2.20;;;;;;;3.58;50.85;98352.97;5088015;28;20055;-80
2021/04/27 02:14:01;;;;;;;2.67;1.80;;;;;;;3.74;49.12;98351.38;5088235;28;20044;-80
2021/04/27 02:16:33;;;;;;;4.65;2.13;;;;;;;3.76;50.33;98355.56;5105474;28;20059;-80
2021/04/27 02:19:02;;;;;;;5.07;2.05;;;;;;;3.64;50.99;98355.00;5101531;28;20471;-80
2021/04/27 02:21:29;;;;;;;3.67;2.23;;;;;;;3.49;52.41;98337.81;5109308;28;20563;-80
2021/04/27 02:23:55;;;;;;;2.00;1.80;;;;;;;3.17;52.49;98337.44;5092055;28;20294;-80
2021/04/27 02:26:22;;;;;;;2.85;1.98;;;;;;;3.23;54.61;98335.97;5097838;28;20450;-79
2021/04/27 02:28:50;;;;;;;3.50;2.10;;;;;;;2.92;55.33;98319.47;5099093;28;20048;-80
2021/04/27 02:31:17;;;;;;;9.50;2.60;;;;;;;3.09;53.84;98334.72;5092642;28;20047;-80
2021/04/27 02:33:44;;;;;;;7.13;2.30;;;;;;;3.15;52.20;98323.34;5100636;28;20046;-80
2021/04/27 02:36:11;;;;;;;2.55;2.10;;;;;;;3.33;51.82;98344.78;5095438;28;20044;-80
2021/04/27 02:38:38;;;;;;;3.78;2.30;;;;;;;3.48;51.21;98342.34;5093251;28;20349;-80
2021/04/27 02:41:05;;;;;;;3.28;2.20;;;;;;;3.47;51.36;98329.91;5096715;28;20104;-80
2021/04/27 02:43:31;;;;;;;7.57;2.17;;;;;;;3.58;50.76;98328.78;5091853;28;20048;-80
2021/04/27 02:45:58;;;;;;;3.80;2.60;;;;;;;3.39;52.20;98312.88;5104143;28;20048;-80
2021/04/27 02:48:26;;;;;;;4.60;2.70;;;;;;;3.44;49.97;98332.91;5092909;28;20040;-80
2021/04/27 02:50:54;;;;;;;3.13;2.25;;;;;;;3.56;51.34;98328.09;5095743;28;20279;-81
2021/04/27 02:53:22;;;;;;;4.00;1.90;;;;;;;3.20;52.70;98309.44;5094902;28;20496;-80
2021/04/27 02:55:49;;;;;;;3.38;2.45;;;;;;;3.36;54.62;98324.81;5092128;28;20044;-80
2021/04/27 02:58:16;;;;;;;3.78;2.40;;;;;;;3.15;53.60;98315.28;5103004;28;20044;-80
2021/04/27 03:00:43;;;;;;;3.88;2.05;;;;;;;3.19;53.53;98313.13;5094809;28;20054;-80
2021/04/27 03:03:10;;;;;;;4.93;2.65;;;;;;;3.23;54.08;98324.41;5096216;28;20052;-80
2021/04/27 03:05:37;;;;;;;3.25;2.08;;;;;;;3.15;54.58;98322.50;5098838;28;20047;-80
2021/04/27 03:08:04;;;;;;;4.03;2.70;;;;;;;3.17;54.29;98321.34;5091188;28;20048;-80
2021/04/27 03:10:31;;;;;;;3.67;2.30;;;;;;;3.09;53.88;98312.41;5094218;28;20092;-80
2021/04/27 03:12:58;;;;;;;5.03;2.67;;;;;;;2.99;54.65;98324.06;5097536;28;20083;-80
2021/04/27 03:15:24;;;;;;;7.07;2.28;;;;;;;3.08;54.90;98327.66;5090733;28;20443;-80
2021/04/27 03:17:51;;;;;;;4.00;2.20;;;;;;;2.96;54.20;98302.06;5099282;28;20488;-80
2021/04/27 03:20:17;;;;;;;12.45;2.63;;;;;;;3.00;54.98;98319.56;5091930;28;20040;-80
2021/04/27 03:22:44;;;;;;;10.85;2.47;;;;;;;2.98;54.84;98321.53;5104221;28;20051;-80
2021/04/27 03:25:40;;;;;;;4.40;2.38;;;;;;;3.01;54.45;98313.16;5099845;28;20089;-79
2021/04/27 03:28:07;;;;;;;6.30;2.22;;;;;;;3.12;53.40;98323.66;5085540;28;20076;-80
2021/04/27 03:30:33;;;;;;;4.30;2.30;;;;;;;2.87;54.67;98321.81;5098691;28;20048;-80
2021/04/27 03:32:59;;;;;;;6.95;2.50;;;;;;;3.04;54.78;98320.06;5095348;28;20051;-80
2021/04/27 03:35:26;;;;;;;6.95;2.63;;;;;;;2.89;54.14;98306.38;5093369;28;20040;-80
2021/04/27 03:37:53;;;;;;;6.63;3.05;;;;;;;2.88;55.67;98313.59;5090530;28;20458;-80
2021/04/27 03:40:19;;;;;;;3.63;2.47;;;;;;;2.90;54.56;98324.19;5091344;28;20048;-80
2021/04/27 03:42:46;;;;;;;10.00;2.75;;;;;;;2.83;54.42;98329.31;5099560;28;20079;-81
2021/04/27 03:45:15;;;;;;;5.30;2.67;;;;;;;2.91;56.02;98321.34;5093604;28;20044;-81
2021/04/27 03:47:42;;;;;;;3.40;2.08;;;;;;;2.72;56.53;98327.72;5087618;28;20044;-82
2021/04/27 03:50:14;;;;;;;4.13;2.47;;;;;;;2.56;56.46;98316.84;5094659;28;20059;-81
2021/04/27 03:52:41;;;;;;;5.10;2.78;;;;;;;2.80;55.57;98318.88;5094316;28;20108;-80
2021/04/27 03:55:08;;;;;;;6.28;2.38;;;;;;;2.78;56.55;98326.28;5093764;28;20044;-80
2021/04/27 03:57:35;;;;;;;6.80;2.13;;;;;;;2.88;56.09;98328.88;5094334;28;20075;-80
2021/04/27 04:00:04;;;;;;;2.63;2.20;;;;;;;2.85;56.35;98329.19;5090895;28;20047;-81
2021/04/27 04:02:30;;;;;;;5.68;2.35;;;;;;;2.77;55.29;98317.38;5105632;28;20048;-81
2021/04/27 04:04:57;;;;;;;5.38;2.45;;;;;;;2.93;55.26;98330.06;5092146;28;20056;-81
2021/04/27 04:07:24;;;;;;;5.38;2.15;;;;;;;2.95;54.15;98330.78;5086958;28;20048;-80
2021/04/27 04:09:50;;;;;;;3.37;2.00;;;;;;;2.98;54.26;98327.78;5089144;28;20051;-80
2021/04/27 04:12:16;;;;;;;4.05;2.40;;;;;;;2.90;54.62;98322.31;5090518;28;20048;-80
2021/04/27 04:14:42;;;;;;;5.97;2.35;;;;;;;2.91;54.22;98325.88;5099041;28;20056;-80
2021/04/27 04:17:10;;;;;;;5.70;2.30;;;;;;;2.99;54.81;98342.03;5101698;28;20077;-80
2021/04/27 04:19:36;;;;;;;2.75;2.50;;;;;;;2.87;55.23;98335.22;5105724;28;20051;-81
2021/04/27 04:22:04;;;;;;;5.72;2.15;;;;;;;2.82;55.69;98339.22;5093312;28;20044;-79
2021/04/27 04:24:31;;;;;;;2.38;1.90;;;;;;;2.77;55.17;98327.25;5092820;28;20055;-81
2021/04/27 04:26:57;;;;;;;5.47;2.13;;;;;;;2.79;56.13;98322.59;5101427;28;20052;-82
2021/04/27 04:29:25;;;;;;;4.63;2.20;;;;;;;2.72;55.67;98326.91;5095282;28;20403;-84
2021/04/27 04:31:51;;;;;;;3.08;2.00;;;;;;;2.61;56.15;98319.94;5093152;28;20052;-84
2021/04/27 04:34:21;;;;;;;6.60;2.88;;;;;;;2.74;56.09;98319.50;5090085;28;20048;-84
2021/04/27 04:36:48;;;;;;;4.43;2.45;;;;;;;2.83;55.81;98323.94;5095789;28;20084;-84
2021/04/27 04:39:17;;;;;;;10.25;2.88;;;;;;;2.68;56.39;98296.00;5090817;28;20048;-83
2021/04/27 04:41:46;;;;;;;2.45;2.20;;;;;;;2.74;55.91;98320.38;5097275;28;20044;-84
2021/04/27 04:44:13;;;;;;;5.03;2.53;;;;;;;2.79;55.81;98309.19;5087032;28;20094;-84
2021/04/27 04:46:42;;;;;;;3.40;2.35;;;;;;;2.73;55.91;98328.59;5098868;28;20048;-84
2021/04/27 04:49:08;;;;;;;5.85;2.60;;;;;;;2.83;56.27;98329.31;5089073;28;20044;-84
2021/04/27 04:51:36;;;;;;;3.33;2.03;;;;;;;2.74;56.90;98309.66;5094634;28;20518;-84
2021/04/27 04:54:02;;;;;;;4.78;2.50;;;;;;;2.58;56.79;98326.44;5095670;28;20051;-84
2021/04/27 04:56:29;;;;;;;3.30;2.38;;;;;;;2.78;56.62;98339.69;5093518;28;20086;-84
2021/04/27 04:58:55;;;;;;;3.08;2.08;;;;;;;2.87;56.93;98329.88;5101007;28;20059;-84
2021/04/27 05:01:21;;;;;;;6.65;2.50;;;;;;;3.03;55.88;98332.66;5093177;28;20457;-84
2021/04/27 05:03:48;;;;;;;7.45;2.85;;;;;;;2.98;55.80;98319.72;5090760;28;20098;-84
2021/04/27 05:06:16;;;;;;;3.00;2.40;;;;;;;2.86;55.70;98309.38;5096559;28;20040;-84
2021/04/27 05:08:45;;;;;;;3.42;2.38;;;;;;;2.94;55.85;98331.75;5096237;28;20480;-84
2021/04/27 05:11:15;;;;;;;5.25;2.90;;;;;;;2.89;55.98;98330.53;5102363;28;20036;-84
2021/04/27 05:13:41;;;;;;;3.38;2.50;;;;;;;2.91;55.92;98336.63;5098568;28;20104;-84
2021/04/27 05:16:09;;;;;;;3.22;2.40;;;;;;;2.85;56.03;98327.34;5091578;28;20047;-84
2021/04/27 05:18:37;;;;;;;3.50;2.30;;;;;;;2.94;55.17;98330.94;5088184;28;20052;-84
2021/04/27 05:21:07;;;;;;;3.65;2.58;;;;;;;3.03;55.17;98323.75;5095164;28;20047;-85
2021/04/27 05:23:33;;;;;;;8.13;3.00;;;;;;;3.39;54.93;98343.31;5092869;28;20098;-84
2021/04/27 05:26:00;;;;;;;3.55;2.30;;;;;;;3.35;54.43;98341.94;5091832;28;20040;-84
2021/04/27 05:28:27;;;;;;;3.00;2.40;;;;;;;3.68;53.93;98329.50;5090070;28;20484;-84
2021/04/27 05:30:54;;;;;;;2.67;2.00;;;;;;;3.99;53.72;98314.63;5091842;28;20079;-85
2021/04/27 05:33:21;;;;;;;11.00;2.60;;;;;;;4.30;52.81;98325.66;5093735;28;20044;-84
2021/04/27 05:35:47;;;;;;;4.53;2.55;;;;;;;4.77;51.38;98327.72;5086545;28;20052;-84
2021/04/27 05:38:17;;;;;;;5.60;2.83;;;;;;;4.87;51.08;98324.84;5089814;28;20048;-84
2021/04/27 05:40:43;;;;;;;9.70;4.03;;;;;;;5.04;49.93;98301.44;5095011;28;20060;-84
2021/04/27 05:43:10;;;;;;;7.35;2.70;;;;;;;5.55;49.04;98338.88;5091800;28;20068;-84
2021/04/27 05:45:37;;;;;;;4.20;2.53;;;;;;;6.03;47.78;98326.25;5092098;28;20049;-85
2021/04/27 05:48:04;;;;;;;4.25;2.58;;;;;;;6.35;46.47;98308.22;5089461;28;20048;-85
2021/04/27 05:50:30;;;;;;;4.00;2.53;;;;;;;5.84;47.06;98313.16;5097876;28;20064;-85
2021/04/27 05:52:58;;;;;;;4.90;2.25;;;;;;;5.84;47.52;98313.16;5092216;28;20048;-84
2021/04/27 05:55:24;;;;;;;6.20;2.50;;;;;;;6.09;47.48;98297.72;5090176;28;20048;-84
2021/04/27 05:57:51;;;;;;;3.30;2.10;;;;;;;6.29;47.49;98324.25;5089265;28;20044;-84
2021/04/27 06:00:19;;;;;;;3.10;2.20;;;;;;;6.34;45.34;98309.22;5089853;28;20048;-84
2021/04/27 06:02:46;;;;;;;3.40;2.08;;;;;;;5.93;47.38;98306.72;5091566;28;20048;-84
2021/04/27 06:05:13;;;;;;;7.82;2.92;;;;;;;6.05;48.23;98314.44;5098780;28;20044;-83
2021/04/27 06:07:39;;;;;;;8.18;2.40;;;;;;;6.53;44.76;98316.00;5089339;28;20549;-80
2021/04/27 06:10:07;;;;;;;4.97;2.40;;;;;;;6.63;45.94;98310.34;5096568;28;20076;-81
2021/04/27 06:12:33;;;;;;;4.10;2.60;;;;;;;6.65;46.45;98308.31;5098608;28;20043;-81
2021/04/27 06:15:03;;;;;;;6.35;2.70;;;;;;;7.42;43.95;98315.38;5096092;28;20040;-84
2021/04/27 06:17:30;;;;;;;6.23;3.67;;;;;;;7.58;41.92;98310.81;5089082;28;20040;-85
2021/04/27 06:19:56;;;;;;;3.15;2.28;;;;;;;7.64;41.22;98311.94;5090832;28;20048;-84
2021/04/27 06:22:24;;;;;;;12.55;3.20;;;;;;;7.21;44.60;98308.00;5085736;28;20067;-84
2021/04/27 06:24:53;;;;;;;3.45;2.42;;;;;;;7.50;42.93;98303.63;5095269;28;20055;-84
2021/04/27 06:27:23;;;;;;;6.03;2.53;;;;;;;7.53;43.31;98295.16;5091109;28;20048;-84
2021/04/27 06:29:52;;;;;;;9.23;2.80;;;;;;;7.66;40.70;98307.16;5094590;28;20313;-84
2021/04/27 06:32:22;;;;;;;9.70;2.67;;;;;;;8.02;41.43;98292.84;5106307;28;20107;-85
2021/04/27 06:34:49;;;;;;;4.90;2.78;;;;;;;8.56;40.37;98294.31;5103316;28;20052;-85
2021/04/27 06:37:16;;;;;;;3.90;2.50;;;;;;;8.54;39.28;98282.84;5104152;28;20049;-85
2021/04/27 06:39:44;;;;;;;12.48;2.60;;;;;;;8.59;38.52;98293.91;5110886;28;20064;-85
2021/04/27 06:42:12;;;;;;;6.88;2.80;;;;;;;8.77;38.47;98309.72;5101592;28;20044;-85
2021/04/27 06:44:39;;;;;;;6.30;2.20;;;;;;;8.76;38.74;98295.34;5099321;28;20067;-84
2021/04/27 06:47:10;;;;;;;4.63;2.90;;;;;;;8.89;38.00;98283.78;5094807;28;20071;-85
2021/04/27 06:49:38;;;;;;;5.32;2.60;;;;;;;8.93;37.55;98278.81;5104120;28;20062;-84
2021/04/27 06:52:09;;;;;;;5.30;2.70;;;;;;;9.01;38.59;98274.06;5091207;28;20063;-84
2021/04/27 06:54:36;;;;;;;5.32;2.75;;;;;;;9.56;36.92;98293.22;5094091;28;20048;-85
2021/04/27 06:57:03;;;;;;;4.28;2.80;;;;;;;9.55;38.04;98267.13;5098743;28;20142;-84
2021/04/27 06:59:32;;;;;;;5.85;2.78;;;;;;;9.91;36.40;98268.75;5093683;28;20044;-85
2021/04/27 07:01:59;;;;;;;8.45;2.60;;;;;;;9.88;36.65;98279.19;5099750;28;20047;-84
2021/04/27 07:04:29;;;;;;;5.53;3.05;;;;;;;10.30;36.10;98263.66;5106516;28;20056;-86
2021/04/27 07:06:56;;;;;;;5.97;2.90;;;;;;;10.56;35.80;98284.66;5090569;28;20383;-84
2021/04/27 07:09:23;;;;;;;3.83;2.75;;;;;;;10.36;35.42;98262.06;5078678;28;20044;-84
2021/04/27 07:11:49;;;;;;;6.63;2.55;;;;;;;10.52;35.99;98267.06;5091097;28;20059;-83
2021/04/27 07:14:15;;;;;;;5.40;2.90;;;;;;;10.93;35.78;98274.22;5099260;28;20048;-84
2021/04/27 07:16:42;;;;;;;6.20;2.63;;;;;;;11.43;34.91;98267.50;5096466;28;20055;-82
2021/04/27 07:19:08;;;;;;;4.80;2.83;;;;;;;11.63;33.58;98268.25;5095216;28;20048;-83
2021/04/27 07:21:36;;;;;;;7.88;3.20;;;;;;;11.76;33.39;98261.13;5099535;28;20051;-82
2021/04/27 07:24:04;;;;;;;6.78;2.78;;;;;;;11.82;33.67;98266.53;5088399;28;20051;-82
2021/04/27 07:26:31;;;;;;;6.65;2.88;;;;;;;11.91;33.96;98260.84;5091634;28;20496;-81
2021/04/27 07:28:58;;;;;;;13.65;3.40;;;;;;;11.76;35.12;98261.97;5089295;28;20048;-82
2021/04/27 07:31:25;;;;;;;10.80;2.85;;;;;;;11.41;33.94;98261.41;5091511;28;20066;-82
2021/04/27 07:33:51;;;;;;;8.13;3.42;;;;;;;11.15;35.02;98276.72;5091345;28;20488;-82
2021/04/27 07:36:19;;;;;;;5.90;3.28;;;;;;;10.96;34.84;98264.84;5090665;28;20474;-81
2021/04/27 07:38:45;;;;;;;7.25;3.20;;;;;;;11.24;34.79;98280.06;5090969;28;20044;-81
2021/04/27 07:41:12;;;;;;;7.90;3.17;;;;;;;11.42;34.63;98279.41;5083508;28;20051;-80
2021/04/27 07:43:40;;;;;;;6.00;3.58;;;;;;;11.26;34.78;98267.94;5083424;28;20044;-80
2021/04/27 07:46:06;;;;;;;5.75;3.05;;;;;;;11.15;35.07;98268.56;5089762;28;20039;-80
2021/04/27 07:48:35;;;;;;;5.75;3.13;;;;;;;11.40;35.80;98276.09;5092741;28;20063;-79
2021/04/27 07:51:01;;;;;;;7.03;2.80;;;;;;;11.58;35.17;98254.47;5098881;28;20112;-80
2021/04/27 07:53:28;;;;;;;6.15;2.95;;;;;;;11.59;36.29;98272.50;5095150;28;20472;-80
2021/04/27 07:55:54;;;;;;;9.55;3.15;;;;;;;11.82;33.78;98249.38;5090788;28;20481;-81
2021/04/27 07:58:23;;;;;;;6.45;3.60;;;;;;;12.06;35.87;98266.06;5089965;28;20040;-83
2021/04/27 08:00:54;;;;;;;22.08;3.53;;;;;;;12.09;34.33;98257.44;5091814;28;20084;-82
2021/04/27 08:03:23;;;;;;;6.55;3.50;;;;;;;12.28;33.11;98270.13;5098776;28;20384;-83
2021/04/27 08:06:16;;;;;;;9.23;3.37;;;;;;;11.73;34.88;98261.53;5094886;28;20055;-82
2021/04/27 08:08:42;;;;;;;8.45;3.70;;;;;;;11.56;34.04;98244.84;5084522;28;20075;-81
2021/04/27 08:11:13;;;;;;;6.55;3.53;;;;;;;11.87;35.66;98265.91;5100260;28;20063;-82
2021/04/27 08:13:39;;;;;;;10.48;3.33;;;;;;;12.10;35.23;98245.50;5092066;28;20447;-82
2021/04/27 08:32:57;;;;;;;6.95;2.92;;;;;;;12.08;34.36;98264.78;5086710;28;20115;-82
2021/04/27 08:35:44;;;;;;;;;;;;;;;;;;;;;
2021/04/27 08:38:15;;;;;;;9.68;3.63;;;;;;;11.94;34.83;98244.97;5087860;28;20059;-81
2021/04/27 08:40:57;;;;;;;6.22;2.83;;;;;;;11.72;35.74;98249.00;5088635;28;20051;-82
2021/04/27 08:43:30;;;;;;;8.95;3.17;;;;;;;11.91;35.23;98242.63;5090729;28;20043;-81
2021/04/27 08:46:01;;;;;;;4.65;3.38;;;;;;;11.79;35.79;98233.47;5090613;28;20488;-81
2021/04/27 08:48:28;;;;;;;8.07;3.55;;;;;;;12.13;35.42;98245.06;5099392;28;20407;-81
2021/04/27 08:50:56;;;;;;;8.93;3.10;;;;;;;12.04;35.67;98248.06;5091194;28;20078;-81
2021/04/27 08:53:23;;;;;;;5.72;2.78;;;;;;;11.94;35.29;98235.94;5086752;28;20480;-82
2021/04/27 08:55:52;;;;;;;6.00;2.95;;;;;;;12.15;36.00;98238.34;5091882;28;20043;-82
2021/04/27 08:58:21;;;;;;;4.68;3.03;;;;;;;12.13;35.39;98231.44;5093221;28;20112;-83
2021/04/27 09:00:48;;;;;;;8.32;3.80;;;;;;;12.48;34.60;98242.78;5089360;28;20036;-82
2021/04/27 09:03:16;;;;;;;7.22;2.78;;;;;;;12.36;35.03;98247.22;5089703;28;20467;-82
2021/04/27 09:05:45;;;;;;;7.35;3.55;;;;;;;12.42;35.36;98221.84;5093802;28;20121;-82
2021/04/27 09:08:11;;;;;;;9.50;3.47;;;;;;;12.24;35.69;98238.09;5092902;28;20055;-82
2021/04/27 09:10:40;;;;;;;7.78;2.55;;;;;;;12.16;35.44;98209.22;5105805;28;20054;-82
2021/04/27 09:13:11;;;;;;;6.63;3.10;;;;;;;12.68;34.14;98220.00;5096566;28;20105;-82
2021/04/27 09:15:43;;;;;;;9.77;4.05;;;;;;;12.46;34.66;98235.88;5098659;28;20766;-81
2021/04/27 09:18:27;;;;;;;3.83;2.90;;;;;;;12.52;34.84;98218.63;5083026;28;20058;-81
2021/04/27 09:21:03;;;;;;;7.22;3.42;;;;;;;12.74;35.98;98228.09;5092299;28;20044;-82
2021/04/27 09:23:31;;;;;;;6.03;3.53;;;;;;;12.60;35.94;98214.78;5091392;28;20055;-81
2021/04/27 09:26:17;;;;;;;4.72;3.10;;;;;;;12.51;34.74;98206.03;5099260;28;20407;-81
2021/04/27 09:28:47;;;;;;;6.95;3.45;;;;;;;12.93;34.21;98229.00;5094809;28;20411;-81
2021/04/27 09:31:27;;;;;;;6.18;4.20;;;;;;;12.96;34.00;98224.97;5100253;28;20040;-82
2021/04/27 09:33:55;;;;;;;7.95;3.28;;;;;;;13.01;34.33;98211.50;5091954;28;20044;-81
2021/04/27 09:36:31;;;;;;;7.22;3.97;;;;;;;13.22;33.43;98204.81;5101916;28;20043;-81
2021/04/27 09:38:57;;;;;;;14.60;3.90;;;;;;;13.40;33.21;98216.84;5090459;28;20092;-81
2021/04/27 09:41:26;;;;;;;10.40;3.10;;;;;;;13.50;36.69;98211.66;5088019;28;20404;-82
2021/04/27 09:43:54;;;;;;;7.85;3.42;;;;;;;13.62;33.14;98215.34;5090137;28;20074;-81
2021/04/27 09:46:25;;;;;;;11.55;3.92;;;;;;;13.84;33.07;98200.38;5097271;28;20500;-81
2021/04/27 09:48:55;;;;;;;18.55;4.00;;;;;;;13.81;33.17;98186.09;5090376;28;20056;-81
2021/04/27 09:51:30;;;;;;;7.53;3.55;;;;;;;13.47;33.01;98179.38;5091592;28;20048;-82
2021/04/27 09:54:06;;;;;;;7.30;3.63;;;;;;;13.14;33.89;98176.97;5092403;28;20330;-82
2021/04/27 09:56:41;;;;;;;8.65;3.42;;;;;;;13.14;33.31;98198.81;5091753;28;20044;-82
2021/04/27 09:59:10;;;;;;;9.77;3.65;;;;;;;13.55;33.93;98190.00;5091893;28;20496;-82
2021/04/27 10:01:37;;;;;;;6.78;3.25;;;;;;;13.92;32.70;98179.00;5103097;28;20043;-82
2021/04/27 10:04:05;;;;;;;7.45;4.05;;;;;;;14.19;32.75;98180.56;5095630;28;20043;-82
2021/04/27 10:06:34;;;;;;;6.15;3.72;;;;;;;14.07;31.52;98178.59;5098919;28;20048;-82
2021/04/27 10:09:00;;;;;;;9.15;3.35;;;;;;;14.30;33.41;98185.22;5094160;28;20047;-82
2021/04/27 10:11:28;;;;;;;8.35;3.92;;;;;;;14.55;31.71;98176.84;5092396;28;20047;-81
2021/04/27 10:13:55;;;;;;;7.93;3.67;;;;;;;14.23;32.16;98177.13;5096320;28;20109;-82
2021/04/27 10:16:24;;;;;;;5.97;4.63;;;;;;;14.31;32.53;98159.56;5101345;28;20044;-82
2021/04/27 10:18:53;;;;;;;8.10;3.80;;;;;;;14.65;33.15;98159.91;5094069;28;20441;-83
2021/04/27 10:21:19;;;;;;;7.60;4.10;;;;;;;14.86;33.33;98163.97;5094748;28;20110;-82
2021/04/27 10:23:50;;;;;;;9.50;4.60;;;;;;;14.95;31.60;98168.00;5097699;28;20052;-82
2021/04/27 10:26:21;;;;;;;12.00;4.05;;;;;;;14.84;31.13;98147.78;5092849;28;20066;-82
2021/04/27 10:28:59;;;;;;;7.03;4.15;;;;;;;14.86;31.08;98162.06;5095995;28;20074;-82
2021/04/27 10:31:26;;;;;;;7.60;4.10;;;;;;;15.11;31.39;98154.66;5103435;28;20059;-82
2021/04/27 10:34:06;;;;;;;8.77;4.53;;;;;;;14.96;32.48;98145.03;5093296;28;20388;-82
2021/04/27 10:36:33;;;;;;;7.57;3.77;;;;;;;15.28;32.94;98152.03;5100561;28;20044;-82
2021/04/27 10:39:03;;;;;;;6.60;4.15;;;;;;;15.61;34.26;98145.06;5092829;28;20101;-82
2021/04/27 10:41:50;;;;;;;7.30;4.63;;;;;;;15.77;31.56;98130.59;5108539;28;20503;-83
2021/04/27 10:44:17;;;;;;;6.07;3.70;;;;;;;15.09;30.29;98121.25;5088099;28;20055;-83
2021/04/27 10:46:45;;;;;;;17.80;6.07;;;;;;;15.12;29.12;98135.25;5106554;28;20096;-82
2021/04/27 10:49:23;;;;;;;9.07;4.55;;;;;;;15.54;28.67;98109.59;5101207;28;20552;-82
2021/04/27 10:51:51;;;;;;;11.93;4.55;;;;;;;15.55;29.69;98122.19;5099095;28;20052;-82
2021/04/27 10:54:24;;;;;;;10.23;4.63;;;;;;;15.67;29.45;98102.97;5106892;28;20487;-82
2021/04/27 10:56:53;;;;;;;13.65;6.90;;;;;;;15.61;29.27;98109.44;5103076;28;20044;-82
2021/04/27 10:59:21;;;;;;;8.07;4.25;;;;;;;15.86;31.85;98106.41;5098344;28;20048;-83
2021/04/27 11:02:06;;;;;;;6.55;4.25;;;;;;;15.75;28.82;98092.47;5092806;28;20051;-83
2021/04/27 11:04:34;;;;;;;6.88;4.00;;;;;;;16.19;29.38;98091.91;5092490;28;20102;-83
2021/04/27 11:07:31;;;;;;;8.23;4.50;;;;;;;16.61;28.98;98091.50;5095120;28;20051;-82
2021/04/27 11:10:34;;;;;;;9.02;4.75;;;;;;;16.30;28.45;98090.19;5083206;28;20082;-82
2021/04/27 11:13:17;;;;;;;8.35;4.45;;;;;;;16.41;29.16;98070.09;5088917;28;20081;-83
2021/04/27 11:15:50;;;;;;;9.27;4.45;;;;;;;16.69;29.62;98087.50;5101536;28;20444;-83
2021/04/27 11:18:18;;;;;;;8.88;4.47;;;;;;;16.41;27.29;98059.13;5093877;28;20503;-83
2021/04/27 11:21:09;;;;;;;10.23;4.30;;;;;;;16.79;28.82;98078.63;5092047;28;20397;-83
2021/04/27 11:23:52;;;;;;;8.25;4.03;;;;;;;16.98;25.09;98077.28;5094817;28;20055;-83
2021/04/27 11:26:44;;;;;;;11.23;4.40;;;;;;;17.21;27.03;98071.78;5091920;28;20059;-83
2021/04/27 11:29:18;;;;;;;10.98;4.50;;;;;;;17.42;27.36;98070.13;5093185;28;20066;-83
2021/04/27 11:32:07;;;;;;;10.10;4.38;;;;;;;17.61;25.47;98048.66;5101065;28;20048;-83
2021/04/27 11:34:52;;;;;;;12.93;4.45;;;;;;;17.56;26.89;98062.34;5078711;28;20197;-83
2021/04/27 11:37:20;;;;;;;7.70;4.10;;;;;;;17.54;26.89;98054.38;5110159;28;20055;-83
2021/04/27 11:39:48;;;;;;;6.97;4.50;;;;;;;17.69;26.66;98062.78;5096423;28;20051;-83
2021/04/27 11:42:23;;;;;;;9.18;4.22;;;;;;;17.59;26.73;98053.59;5101012;28;20067;-83
2021/04/27 11:44:55;;;;;;;15.98;5.60;;;;;;;17.79;25.46;98062.03;5103007;28;20407;-83
2021/04/27 11:47:22;;;;;;;7.30;4.03;;;;;;;17.80;25.26;98047.22;5091369;28;20423;-83
2021/04/27 11:49:57;;;;;;;9.82;4.00;;;;;;;18.01;26.22;98047.44;5098024;28;20052;-83
2021/04/27 11:52:50;;;;;;;7.22;4.57;;;;;;;17.81;26.67;98043.38;5098123;28;20039;-83
2021/04/27 11:55:26;;;;;;;7.20;4.80;;;;;;;17.91;26.67;98052.84;5091367;28;20044;-83
2021/04/27 11:57:56;;;;;;;8.00;4.35;;;;;;;18.24;26.57;98042.69;5101578;28;20051;-82
2021/04/27 12:00:31;;;;;;;8.18;4.78;;;;;;;18.03;23.79;98035.09;5093114;28;20044;-83
2021/04/27 12:02:58;;;;;;;11.15;4.85;;;;;;;18.20;23.13;98018.47;5094825;28;20496;-83
2021/04/27 12:05:25;;;;;;;7.57;4.40;;;;;;;18.09;23.76;98044.22;5095916;28;20039;-83